Time;durP1;ratioP1;P1;durP2;ratioP2;P2;SDS_P1;SDS_P2;PMS_P1;PMS_P2;Temp;Humidity;BMP_temperature;BMP_pressure;BME280_temperature;BME280_humidity;BME280_pressure;Samples;Min_cycle;Max_cycle;Signal;HPM_P1;HPM_P2
2023/03/05 00:02:18;;;;;;;16.40;9.87;;;;;;;;;;5016642;28;20258;-87
2023/03/05 00:04:45;;;;;;;20.07;11.33;;;;;;;;;;5012794;28;20593;-88
2023/03/05 00:07:13;;;;;;;16.00;10.20;;;;;;;;;;5028812;28;20724;-88
2023/03/05 00:09:40;;;;;;;14.93;10.40;;;;;;;;;;5037462;28;20236;-89
2023/03/05 00:12:07;;;;;;;14.93;10.33;;;;;;;;;;5021738;28;20231;-88
2023/03/05 00:14:34;;;;;;;17.97;10.57;;;;;;;;;;5019316;28;20408;-88
2023/03/05 00:17:01;;;;;;;17.60;11.00;;;;;;;;;;5019743;28;20201;-88
2023/03/05 00:19:30;;;;;;;13.97;10.07;;;;;;;;;;5019214;28;20234;-88
2023/03/05 00:21:57;;;;;;;18.13;10.70;;;;;;;;;;5035308;28;20225;-88
2023/03/05 00:24:24;;;;;;;17.70;10.87;;;;;;;;;;5039280;28;20239;-88
2023/03/05 00:26:52;;;;;;;19.87;11.50;;;;;;;;;;5038914;28;20216;-88
2023/03/05 00:29:20;;;;;;;19.97;11.07;;;;;;;;;;5033518;28;20721;-88
2023/03/05 00:31:47;;;;;;;15.87;10.77;;;;;;;;;;5029031;28;20264;-88
2023/03/05 00:34:16;;;;;;;19.20;11.00;;;;;;;;;;5025906;28;20226;-88
2023/03/05 00:36:45;;;;;;;16.60;11.33;;;;;;;;;;5036526;28;20574;-88
2023/03/05 00:39:13;;;;;;;19.90;11.90;;;;;;;;;;5038409;28;20729;-88
2023/03/05 00:41:40;;;;;;;16.27;11.57;;;;;;;;;;5038777;28;20249;-88
2023/03/05 00:44:07;;;;;;;20.67;10.83;;;;;;;;;;5036508;28;20225;-88
2023/03/05 00:46:35;;;;;;;20.63;11.23;;;;;;;;;;5032116;28;20199;-88
2023/03/05 00:49:02;;;;;;;18.03;11.00;;;;;;;;;;5019376;28;20279;-88
2023/03/05 00:51:30;;;;;;;19.10;11.10;;;;;;;;;;5033025;28;20229;-88
2023/03/05 00:53:58;;;;;;;16.03;10.80;;;;;;;;;;5021968;28;20232;-88
2023/03/05 00:56:25;;;;;;;20.23;11.10;;;;;;;;;;5028291;28;20199;-88
2023/03/05 00:58:53;;;;;;;19.07;11.50;;;;;;;;;;5038203;28;20238;-88
2023/03/05 01:01:20;;;;;;;18.20;11.77;;;;;;;;;;5038747;28;20256;-87
2023/03/05 01:03:47;;;;;;;16.60;11.43;;;;;;;;;;5038409;28;20240;-88
2023/03/05 01:06:15;;;;;;;17.47;11.23;;;;;;;;;;5031014;28;20305;-87
2023/03/05 01:08:42;;;;;;;19.40;11.40;;;;;;;;;;5026722;28;20256;-89
2023/03/05 01:11:11;;;;;;;17.57;11.00;;;;;;;;;;5022556;28;20210;-88
2023/03/05 01:13:38;;;;;;;18.60;13.03;;;;;;;;;;5031623;28;20587;-89
2023/03/05 01:16:06;;;;;;;18.67;11.40;;;;;;;;;;5030421;28;20207;-88
2023/03/05 01:18:33;;;;;;;16.80;11.47;;;;;;;;;;5016487;28;20250;-89
2023/03/05 01:21:00;;;;;;;17.00;11.00;;;;;;;;;;5020958;28;20571;-88
2023/03/05 01:23:27;;;;;;;17.17;11.40;;;;;;;;;;5035407;28;20231;-88
2023/03/05 01:25:55;;;;;;;15.10;11.27;;;;;;;;;;5035761;28;20581;-89
2023/03/05 01:28:24;;;;;;;18.80;11.27;;;;;;;;;;5034474;28;20246;-89
2023/03/05 01:30:51;;;;;;;19.67;10.57;;;;;;;;;;5024188;28;20214;-88
2023/03/05 01:33:18;;;;;;;18.87;11.97;;;;;;;;;;5035809;28;20241;-88
2023/03/05 01:35:47;;;;;;;17.63;10.90;;;;;;;;;;5035586;28;20208;-89
2023/03/05 01:38:14;;;;;;;17.83;11.37;;;;;;;;;;5016818;28;20241;-88
2023/03/05 01:40:42;;;;;;;17.80;11.77;;;;;;;;;;5024575;28;20202;-88
2023/03/05 01:43:19;;;;;;;18.63;10.60;;;;;;;;;;5029932;28;20605;-88
2023/03/05 01:46:04;;;;;;;17.47;10.60;;;;;;;;;;5035676;28;20217;-88
2023/03/05 01:48:32;;;;;;;22.50;12.40;;;;;;;;;;5019350;28;20238;-89
2023/03/05 01:51:00;;;;;;;17.30;10.77;;;;;;;;;;5035235;28;20202;-88
2023/03/05 01:53:27;;;;;;;18.17;11.20;;;;;;;;;;5035219;28;20318;-88
2023/03/05 01:55:54;;;;;;;16.03;11.20;;;;;;;;;;5025134;28;20211;-87
2023/03/05 01:58:21;;;;;;;17.73;10.40;;;;;;;;;;5016900;28;20237;-89
2023/03/05 02:00:48;;;;;;;15.90;10.73;;;;;;;;;;5033523;28;20201;-88
2023/03/05 02:03:16;;;;;;;18.10;10.67;;;;;;;;;;5033326;28;20229;-88
2023/03/05 02:05:44;;;;;;;15.20;10.97;;;;;;;;;;5033494;28;20209;-88
2023/03/05 02:08:13;;;;;;;16.73;10.60;;;;;;;;;;5037042;28;20244;-88
2023/03/05 02:10:42;;;;;;;15.00;10.00;;;;;;;;;;5025749;28;20216;-88
2023/03/05 02:13:11;;;;;;;20.17;11.20;;;;;;;;;;5017774;28;20235;-89
2023/03/05 02:15:39;;;;;;;15.83;10.13;;;;;;;;;;5018362;28;20204;-89
2023/03/05 02:18:06;;;;;;;20.53;9.87;;;;;;;;;;5027306;28;20247;-88
2023/03/05 02:20:43;;;;;;;20.10;10.83;;;;;;;;;;5036914;28;20237;-88
2023/03/05 02:23:11;;;;;;;16.87;10.67;;;;;;;;;;5026337;28;20245;-88
2023/03/05 02:25:38;;;;;;;15.33;10.37;;;;;;;;;;5042987;28;20190;-88
2023/03/05 02:28:08;;;;;;;21.20;9.90;;;;;;;;;;5032927;28;20687;-89
2023/03/05 02:30:36;;;;;;;15.53;10.07;;;;;;;;;;5026046;28;20194;-88
2023/03/05 02:33:03;;;;;;;12.67;9.73;;;;;;;;;;5049199;28;20238;-88
2023/03/05 02:35:30;;;;;;;19.40;10.80;;;;;;;;;;5034865;28;20216;-89
2023/03/05 02:37:57;;;;;;;16.90;9.93;;;;;;;;;;5029249;28;20587;-89
2023/03/05 02:40:26;;;;;;;19.97;10.20;;;;;;;;;;5033973;28;20202;-89
2023/03/05 02:42:53;;;;;;;17.47;9.83;;;;;;;;;;5036915;28;20249;-90
2023/03/05 02:45:20;;;;;;;14.80;8.73;;;;;;;;;;5025553;28;20219;-89
2023/03/05 02:47:47;;;;;;;16.43;8.67;;;;;;;;;;5021105;28;20233;-88
2023/03/05 02:50:14;;;;;;;14.90;8.97;;;;;;;;;;5032690;28;20211;-88
2023/03/05 02:52:41;;;;;;;16.27;8.53;;;;;;;;;;5018855;28;20249;-89
2023/03/05 02:55:09;;;;;;;16.87;8.90;;;;;;;;;;5019016;28;20202;-88
2023/03/05 02:57:37;;;;;;;11.47;7.97;;;;;;;;;;5025124;28;20761;-89
2023/03/05 03:00:05;;;;;;;12.77;7.93;;;;;;;;;;5036564;28;20218;-88
2023/03/05 03:02:32;;;;;;;12.07;7.33;;;;;;;;;;5027731;28;20222;-88
2023/03/05 03:04:59;;;;;;;11.63;8.13;;;;;;;;;;5016123;28;20222;-88
2023/03/05 03:07:26;;;;;;;10.93;7.37;;;;;;;;;;5016455;28;20225;-89
2023/03/05 03:09:53;;;;;;;11.13;7.27;;;;;;;;;;5015973;28;20199;-88
2023/03/05 03:12:21;;;;;;;14.47;8.00;;;;;;;;;;5025928;28;20225;-89
2023/03/05 03:14:49;;;;;;;16.03;8.00;;;;;;;;;;5034960;28;20201;-88
2023/03/05 03:17:17;;;;;;;18.23;7.77;;;;;;;;;;5034953;28;20213;-89
2023/03/05 03:19:45;;;;;;;15.37;7.87;;;;;;;;;;5034533;28;20218;-88
2023/03/05 03:22:14;;;;;;;13.90;7.50;;;;;;;;;;5018817;28;20233;-88
2023/03/05 03:24:42;;;;;;;15.40;7.53;;;;;;;;;;5034549;28;20225;-87
2023/03/05 03:27:09;;;;;;;12.13;6.97;;;;;;;;;;5016742;28;20206;-89
2023/03/05 03:29:36;;;;;;;12.63;6.33;;;;;;;;;;5015209;28;20224;-88
2023/03/05 03:32:07;;;;;;;16.40;6.60;;;;;;;;;;5025576;28;20236;-88
2023/03/05 03:34:34;;;;;;;11.37;6.47;;;;;;;;;;5015396;28;20257;-88
2023/03/05 03:37:02;;;;;;;10.60;6.33;;;;;;;;;;5029770;28;20202;-88
2023/03/05 03:39:29;;;;;;;14.63;6.20;;;;;;;;;;5034020;28;20240;-88
2023/03/05 03:41:56;;;;;;;11.03;6.03;;;;;;;;;;5033610;28;20239;-88
2023/03/05 03:44:23;;;;;;;11.97;6.77;;;;;;;;;;5033933;28;20741;-88
2023/03/05 03:46:53;;;;;;;11.30;6.37;;;;;;;;;;5034274;28;20206;-88
2023/03/05 03:49:22;;;;;;;13.47;7.07;;;;;;;;;;5017771;28;20767;-88
2023/03/05 03:51:50;;;;;;;11.77;7.37;;;;;;;;;;5014184;28;20225;-88
2023/03/05 03:54:18;;;;;;;12.43;6.70;;;;;;;;;;5013895;28;20233;-88
2023/03/05 03:56:46;;;;;;;8.33;6.77;;;;;;;;;;5015184;28;20183;-88
2023/03/05 03:59:13;;;;;;;13.37;7.43;;;;;;;;;;5013355;28;20242;-89
2023/03/05 04:01:40;;;;;;;16.93;7.83;;;;;;;;;;5018547;28;20222;-88
2023/03/05 04:04:07;;;;;;;12.17;7.57;;;;;;;;;;5016877;28;20238;-88
2023/03/05 04:06:36;;;;;;;16.10;8.00;;;;;;;;;;5014818;28;20196;-88
2023/03/05 04:09:03;;;;;;;14.97;8.50;;;;;;;;;;5013465;28;20604;-88
2023/03/05 04:11:30;;;;;;;11.83;8.17;;;;;;;;;;5016267;28;20221;-87
2023/03/05 04:13:57;;;;;;;16.90;8.63;;;;;;;;;;5030808;28;20233;-88
2023/03/05 04:16:24;;;;;;;12.27;8.17;;;;;;;;;;5023999;28;20204;-88
2023/03/05 04:18:51;;;;;;;13.60;8.00;;;;;;;;;;5024214;28;20233;-88
2023/03/05 04:21:19;;;;;;;9.73;7.50;;;;;;;;;;5018110;28;20202;-88
2023/03/05 04:23:47;;;;;;;13.70;7.30;;;;;;;;;;5015790;28;20245;-94
2023/03/05 04:26:14;;;;;;;14.37;8.33;;;;;;;;;;5016324;28;20567;-94
2023/03/05 04:28:41;;;;;;;15.87;7.57;;;;;;;;;;5020573;28;20237;-94
2023/03/05 04:31:08;;;;;;;16.27;8.13;;;;;;;;;;5032706;28;20204;-93
2023/03/05 04:33:35;;;;;;;10.07;7.20;;;;;;;;;;5021302;28;20232;-93
2023/03/05 04:36:03;;;;;;;14.47;7.90;;;;;;;;;;5036093;28;20205;-94
2023/03/05 04:38:30;;;;;;;13.20;7.80;;;;;;;;;;5034483;28;20244;-94
2023/03/05 04:40:58;;;;;;;11.43;7.77;;;;;;;;;;5032175;28;20298;-94
2023/03/05 04:43:26;;;;;;;15.03;7.93;;;;;;;;;;5016560;28;20679;-93
2023/03/05 04:45:55;;;;;;;9.43;6.97;;;;;;;;;;5028746;28;20255;-93
2023/03/05 04:48:22;;;;;;;12.83;6.30;;;;;;;;;;5027961;28;20247;-94
2023/03/05 04:50:49;;;;;;;12.27;6.43;;;;;;;;;;5021687;28;20283;-94
2023/03/05 04:53:16;;;;;;;12.40;7.30;;;;;;;;;;5015500;28;20684;-94
2023/03/05 04:55:44;;;;;;;12.10;6.50;;;;;;;;;;5019682;28;20214;-93
2023/03/05 04:58:12;;;;;;;9.60;6.40;;;;;;;;;;5018610;28;20239;-94
2023/03/05 05:00:39;;;;;;;10.93;6.17;;;;;;;;;;5019383;28;20215;-94
2023/03/05 05:03:06;;;;;;;10.70;6.27;;;;;;;;;;5027940;28;20243;-94
2023/03/05 05:05:33;;;;;;;9.77;6.17;;;;;;;;;;5038661;28;20222;-94
2023/03/05 05:08:00;;;;;;;11.07;5.67;;;;;;;;;;5038245;28;20231;-94
2023/03/05 05:10:28;;;;;;;10.77;6.23;;;;;;;;;;5038633;28;20198;-94
2023/03/05 05:12:55;;;;;;;8.00;5.40;;;;;;;;;;5037912;28;20608;-94
2023/03/05 05:15:23;;;;;;;9.73;5.90;;;;;;;;;;5038540;28;20206;-89
2023/03/05 05:17:51;;;;;;;14.10;5.67;;;;;;;;;;5036243;28;20238;-88
2023/03/05 05:20:18;;;;;;;12.20;6.03;;;;;;;;;;5036754;28;20216;-88
2023/03/05 05:22:45;;;;;;;7.50;5.50;;;;;;;;;;5033626;28;20249;-88
2023/03/05 05:25:13;;;;;;;9.27;5.93;;;;;;;;;;5024753;28;20233;-88
2023/03/05 05:27:40;;;;;;;17.80;5.87;;;;;;;;;;5027052;28;20716;-88
2023/03/05 05:30:08;;;;;;;13.47;6.80;;;;;;;;;;5016311;28;20199;-88
2023/03/05 05:32:36;;;;;;;7.53;6.10;;;;;;;;;;5015776;28;20668;-88
2023/03/05 05:35:04;;;;;;;6.53;5.10;;;;;;;;;;5016669;28;20377;-88
2023/03/05 05:37:31;;;;;;;7.43;6.27;;;;;;;;;;5016075;28;20206;-89
2023/03/05 05:39:58;;;;;;;8.80;5.73;;;;;;;;;;5016719;28;20203;-87
2023/03/05 05:42:26;;;;;;;7.33;5.10;;;;;;;;;;5016071;28;20233;-88
2023/03/05 05:44:54;;;;;;;11.90;5.27;;;;;;;;;;5016255;28;20321;-88
2023/03/05 05:47:21;;;;;;;8.23;4.47;;;;;;;;;;5016148;28;20211;-89
2023/03/05 05:49:49;;;;;;;7.97;3.97;;;;;;;;;;5023464;28;20205;-88
2023/03/05 05:52:16;;;;;;;7.57;3.80;;;;;;;;;;5035289;28;20239;-87
2023/03/05 05:54:55;;;;;;;5.67;3.70;;;;;;;;;;5035910;28;20207;-87
2023/03/05 05:57:23;;;;;;;6.13;3.80;;;;;;;;;;5035638;28;20216;-89
2023/03/05 05:59:51;;;;;;;4.17;3.50;;;;;;;;;;5036122;28;20583;-88
2023/03/05 06:02:19;;;;;;;3.87;3.20;;;;;;;;;;5035867;28;20283;-88
2023/03/05 06:04:46;;;;;;;4.87;3.07;;;;;;;;;;5035131;28;20226;-88
2023/03/05 06:07:14;;;;;;;5.70;3.60;;;;;;;;;;5035724;28;20530;-88
2023/03/05 06:09:41;;;;;;;4.80;3.50;;;;;;;;;;5035467;28;20233;-87
2023/03/05 06:12:09;;;;;;;5.83;3.60;;;;;;;;;;5035557;28;20225;-87
2023/03/05 06:14:36;;;;;;;9.27;3.90;;;;;;;;;;5035185;28;20241;-88
2023/03/05 06:17:03;;;;;;;9.07;3.80;;;;;;;;;;5023353;28;20211;-88
2023/03/05 06:19:30;;;;;;;5.97;3.70;;;;;;;;;;5015067;28;20240;-88
2023/03/05 06:21:57;;;;;;;7.40;3.60;;;;;;;;;;5015696;28;20243;-88
2023/03/05 06:24:25;;;;;;;7.07;3.70;;;;;;;;;;5015287;28;20241;-88
2023/03/05 06:26:52;;;;;;;7.30;4.00;;;;;;;;;;5027217;28;20199;-88
2023/03/05 06:29:19;;;;;;;3.80;3.50;;;;;;;;;;5034973;28;20240;-89
2023/03/05 06:31:46;;;;;;;8.10;4.27;;;;;;;;;;5035219;28;20249;-88
2023/03/05 06:34:13;;;;;;;11.27;4.60;;;;;;;;;;5034865;28;20709;-88
2023/03/05 06:36:42;;;;;;;10.87;5.00;;;;;;;;;;5035365;28;20205;-88
2023/03/05 06:39:09;;;;;;;9.37;4.67;;;;;;;;;;5034535;28;20239;-88
2023/03/05 06:41:37;;;;;;;8.77;5.03;;;;;;;;;;5034931;28;20231;-88
2023/03/05 06:44:05;;;;;;;11.77;6.30;;;;;;;;;;5031175;28;20227;-88
2023/03/05 06:46:32;;;;;;;7.77;4.77;;;;;;;;;;5016123;28;20238;-89
2023/03/05 06:49:00;;;;;;;8.33;5.00;;;;;;;;;;5015440;28;20837;-88
2023/03/05 06:51:28;;;;;;;10.63;5.80;;;;;;;;;;5023204;28;20222;-89
2023/03/05 06:53:56;;;;;;;8.07;5.30;;;;;;;;;;5034828;28;20722;-87
2023/03/05 06:56:23;;;;;;;7.13;4.87;;;;;;;;;;5025886;28;20195;-86
2023/03/05 06:58:52;;;;;;;6.53;5.10;;;;;;;;;;5015185;28;20242;-87
2023/03/05 07:01:19;;;;;;;8.47;5.13;;;;;;;;;;5014785;28;20199;-87
2023/03/05 07:03:49;;;;;;;9.07;5.07;;;;;;;;;;5014338;28;20747;-84
2023/03/05 07:06:18;;;;;;;7.47;4.67;;;;;;;;;;5022099;28;20750;-84
2023/03/05 07:08:46;;;;;;;9.60;5.10;;;;;;;;;;5034297;28;20230;-84
2023/03/05 07:11:15;;;;;;;11.17;5.90;;;;;;;;;;5033828;28;20201;-83
2023/03/05 07:13:43;;;;;;;10.47;5.70;;;;;;;;;;5033788;28;20694;-84
2023/03/05 07:16:14;;;;;;;14.87;6.13;;;;;;;;;;5017931;28;20628;-84
2023/03/05 07:18:41;;;;;;;12.27;6.30;;;;;;;;;;5013681;28;20237;-85
2023/03/05 07:21:09;;;;;;;12.60;7.33;;;;;;;;;;5013303;28;20206;-85
2023/03/05 07:23:37;;;;;;;9.80;7.27;;;;;;;;;;5013145;28;20237;-85
2023/03/05 07:26:05;;;;;;;11.23;7.47;;;;;;;;;;5013465;28;20223;-85
2023/03/05 07:28:32;;;;;;;12.17;7.77;;;;;;;;;;5024210;28;20241;-84
2023/03/05 07:31:09;;;;;;;13.33;6.67;;;;;;;;;;5030521;28;20204;-86
2023/03/05 07:33:37;;;;;;;9.23;6.37;;;;;;;;;;5016159;28;20244;-86
2023/03/05 07:36:05;;;;;;;14.13;7.70;;;;;;;;;;5019372;28;20202;-86
2023/03/05 07:38:32;;;;;;;15.17;7.57;;;;;;;;;;5033989;28;20247;-86
2023/03/05 07:41:02;;;;;;;12.50;7.27;;;;;;;;;;5035584;28;20216;-87
2023/03/05 07:43:29;;;;;;;10.43;7.03;;;;;;;;;;5034957;28;20711;-87
2023/03/05 07:45:56;;;;;;;11.53;7.10;;;;;;;;;;5035301;28;20632;-84
2023/03/05 07:48:24;;;;;;;12.53;8.50;;;;;;;;;;5034454;28;20256;-85
2023/03/05 07:51:00;;;;;;;12.80;8.17;;;;;;;;;;5034458;28;20212;-82
2023/03/05 07:53:27;;;;;;;13.13;7.80;;;;;;;;;;5051358;28;20692;-85
2023/03/05 07:55:54;;;;;;;11.17;8.00;;;;;;;;;;5052299;28;20214;-84
2023/03/05 07:58:21;;;;;;;10.37;7.20;;;;;;;;;;5051500;28;20236;-84
2023/03/05 08:00:48;;;;;;;13.17;7.40;;;;;;;;;;5012717;28;20218;-86
2023/03/05 08:03:16;;;;;;;11.40;7.20;;;;;;;;;;5032941;28;20710;-89
2023/03/05 08:05:43;;;;;;;10.40;6.03;;;;;;;;;;5033505;28;20631;-88
2023/03/05 08:08:12;;;;;;;9.80;6.57;;;;;;;;;;5032035;28;20249;-88
2023/03/05 08:10:39;;;;;;;11.90;6.20;;;;;;;;;;5033293;28;20306;-90
2023/03/05 08:13:06;;;;;;;10.80;6.07;;;;;;;;;;5049902;28;20251;-90
2023/03/05 08:15:33;;;;;;;8.20;6.67;;;;;;;;;;5053050;28;20202;-90
2023/03/05 08:18:01;;;;;;;12.27;6.47;;;;;;;;;;5052422;28;20722;-90
2023/03/05 08:20:28;;;;;;;10.37;6.43;;;;;;;;;;5032598;28;20260;-91
2023/03/05 08:22:55;;;;;;;9.50;6.03;;;;;;;;;;5043368;28;20252;-90
2023/03/05 08:25:24;;;;;;;9.50;6.53;;;;;;;;;;5053064;28;20223;-90
2023/03/05 08:27:51;;;;;;;9.53;6.17;;;;;;;;;;5029473;28;20706;-87
2023/03/05 08:30:20;;;;;;;8.87;6.03;;;;;;;;;;5017220;28;20208;-91
2023/03/05 08:32:49;;;;;;;9.00;5.83;;;;;;;;;;5030110;28;20653;-91
2023/03/05 08:35:16;;;;;;;9.03;5.80;;;;;;;;;;5037211;28;20206;-89
2023/03/05 08:37:43;;;;;;;10.33;5.00;;;;;;;;;;5036234;28;20280;-90
2023/03/05 08:40:11;;;;;;;7.70;5.37;;;;;;;;;;5035912;28;20208;-88
2023/03/05 08:42:40;;;;;;;11.20;6.60;;;;;;;;;;5036099;28;20242;-89
2023/03/05 08:45:08;;;;;;;9.43;6.67;;;;;;;;;;5036577;28;20308;-89
2023/03/05 08:47:35;;;;;;;9.57;6.00;;;;;;;;;;5035626;28;20240;-85
2023/03/05 08:50:02;;;;;;;8.73;5.70;;;;;;;;;;5034711;28;20210;-86
2023/03/05 08:52:30;;;;;;;10.67;6.73;;;;;;;;;;5042669;28;20231;-88
2023/03/05 08:54:57;;;;;;;9.57;5.80;;;;;;;;;;5055999;28;20216;-89
2023/03/05 08:57:24;;;;;;;12.03;5.50;;;;;;;;;;5055695;28;20215;-89
2023/03/05 08:59:53;;;;;;;9.87;5.73;;;;;;;;;;5055979;28;20199;-88
2023/03/05 09:02:20;;;;;;;12.07;5.80;;;;;;;;;;5047708;28;20233;-86
2023/03/05 09:04:47;;;;;;;8.77;5.77;;;;;;;;;;5035508;28;20233;-86
2023/03/05 09:07:14;;;;;;;9.63;6.60;;;;;;;;;;5025914;28;20233;-86
2023/03/05 09:09:41;;;;;;;11.77;5.70;;;;;;;;;;5034454;28;20228;-84
2023/03/05 09:12:10;;;;;;;6.50;4.93;;;;;;;;;;5033845;28;20234;-86
2023/03/05 09:14:37;;;;;;;8.77;6.17;;;;;;;;;;5033932;28;20238;-87
2023/03/05 09:17:06;;;;;;;7.77;5.13;;;;;;;;;;5034374;28;20224;-86
2023/03/05 09:19:33;;;;;;;7.07;4.73;;;;;;;;;;5033678;28;20260;-85
2023/03/05 09:22:00;;;;;;;10.77;5.27;;;;;;;;;;5033521;28;20333;-85
2023/03/05 09:24:27;;;;;;;7.33;4.90;;;;;;;;;;5033345;28;20234;-86
2023/03/05 09:26:54;;;;;;;11.17;5.80;;;;;;;;;;5033891;28;20226;-85
2023/03/05 09:29:21;;;;;;;9.27;5.70;;;;;;;;;;5033443;28;20614;-85
2023/03/05 09:31:51;;;;;;;7.43;5.50;;;;;;;;;;5033603;28;20268;-86
2023/03/05 09:34:20;;;;;;;8.63;5.37;;;;;;;;;;5013765;28;20442;-86
2023/03/05 09:36:47;;;;;;;8.17;5.70;;;;;;;;;;5014224;28;20577;-86
2023/03/05 09:39:14;;;;;;;9.03;5.57;;;;;;;;;;5013133;28;20237;-86
2023/03/05 09:41:51;;;;;;;8.53;5.90;;;;;;;;;;5014485;28;20250;-87
2023/03/05 09:44:23;;;;;;;8.60;5.60;;;;;;;;;;5030772;28;20229;-85
2023/03/05 09:46:53;;;;;;;13.30;7.03;;;;;;;;;;5015579;28;20229;-85
2023/03/05 09:49:30;;;;;;;9.50;5.67;;;;;;;;;;5024440;28;20231;-86
2023/03/05 09:52:01;;;;;;;6.70;5.40;;;;;;;;;;5013225;28;20215;-85
2023/03/05 09:54:32;;;;;;;8.60;5.63;;;;;;;;;;5016513;28;20242;-88
2023/03/05 09:57:01;;;;;;;6.63;5.47;;;;;;;;;;5014065;28;20552;-87
2023/03/05 09:59:32;;;;;;;9.00;5.70;;;;;;;;;;5013503;28;20243;-85
2023/03/05 10:02:01;;;;;;;9.10;5.63;;;;;;;;;;5013467;28;20222;-86
2023/03/05 10:04:31;;;;;;;5.87;5.07;;;;;;;;;;5051069;28;20234;-88
2023/03/05 10:07:01;;;;;;;6.53;5.40;;;;;;;;;;5027233;28;20239;-85
2023/03/05 10:09:36;;;;;;;7.57;5.57;;;;;;;;;;5040672;28;20237;-87
2023/03/05 10:12:05;;;;;;;10.70;5.83;;;;;;;;;;5043253;28;20218;-88
2023/03/05 10:14:35;;;;;;;10.83;5.73;;;;;;;;;;5051245;28;20244;-89
2023/03/05 10:17:23;;;;;;;8.17;5.30;;;;;;;;;;5053511;28;20205;-88
2023/03/05 10:20:12;;;;;;;7.63;5.70;;;;;;;;;;5048759;28;20223;-87
2023/03/05 10:22:52;;;;;;;11.50;5.63;;;;;;;;;;5043192;28;20234;-87
2023/03/05 10:25:24;;;;;;;8.63;5.30;;;;;;;;;;5034554;28;20293;-86
2023/03/05 10:28:04;;;;;;;10.03;5.37;;;;;;;;;;5031984;28;20235;-87
2023/03/05 10:30:34;;;;;;;9.67;5.50;;;;;;;;;;5033029;28;20690;-86
2023/03/05 10:33:09;;;;;;;9.67;4.90;;;;;;;;;;5030948;28;20242;-86
2023/03/05 10:35:43;;;;;;;7.47;4.67;;;;;;;;;;5033881;28;20190;-85
2023/03/05 10:38:20;;;;;;;7.07;5.50;;;;;;;;;;5032973;28;20237;-86
2023/03/05 10:40:47;;;;;;;10.77;6.23;;;;;;;;;;5032730;28;20224;-87
2023/03/05 10:43:19;;;;;;;7.60;5.40;;;;;;;;;;5024198;28;20255;-86
2023/03/05 10:45:48;;;;;;;9.60;5.80;;;;;;;;;;5051032;28;20233;-86
2023/03/05 10:48:17;;;;;;;6.93;4.87;;;;;;;;;;5015505;28;20595;-86
2023/03/05 10:50:47;;;;;;;7.47;4.90;;;;;;;;;;5012555;28;20574;-86
2023/03/05 10:53:20;;;;;;;6.80;5.33;;;;;;;;;;5024903;28;20245;-84
2023/03/05 10:55:49;;;;;;;7.17;5.50;;;;;;;;;;5031907;28;20577;-84
2023/03/05 10:58:17;;;;;;;7.67;5.00;;;;;;;;;;5032123;28;20313;-84
2023/03/05 11:00:58;;;;;;;8.43;5.60;;;;;;;;;;5033764;28;20218;-84
2023/03/05 11:03:25;;;;;;;8.73;5.73;;;;;;;;;;5038852;28;20476;-84
2023/03/05 11:05:59;;;;;;;7.87;4.87;;;;;;;;;;5031255;28;20210;-84
2023/03/05 11:08:32;;;;;;;10.23;5.17;;;;;;;;;;5031046;28;20233;-84
2023/03/05 11:11:04;;;;;;;6.77;5.03;;;;;;;;;;5031134;28;20302;-84
2023/03/05 11:13:31;;;;;;;8.13;4.90;;;;;;;;;;5035092;28;20241;-84
2023/03/05 11:16:02;;;;;;;6.53;4.53;;;;;;;;;;5050884;28;20210;-84
2023/03/05 11:18:33;;;;;;;7.77;5.20;;;;;;;;;;5050519;28;20616;-84
2023/03/05 11:21:12;;;;;;;7.00;4.47;;;;;;;;;;5050798;28;20209;-84
2023/03/05 11:23:40;;;;;;;7.33;4.87;;;;;;;;;;5050586;28;20233;-84
2023/03/05 11:26:22;;;;;;;6.40;4.60;;;;;;;;;;5051406;28;20198;-84
2023/03/05 11:28:56;;;;;;;8.13;4.73;;;;;;;;;;5038909;28;20231;-84
2023/03/05 11:31:25;;;;;;;6.30;4.23;;;;;;;;;;5026855;28;20225;-84
2023/03/05 11:33:56;;;;;;;5.93;4.27;;;;;;;;;;5022559;28;20313;-84
2023/03/05 11:36:26;;;;;;;6.00;4.60;;;;;;;;;;5033645;28;20227;-85
2023/03/05 11:38:56;;;;;;;6.60;3.80;;;;;;;;;;5013792;28;20730;-85
2023/03/05 11:41:27;;;;;;;5.00;4.20;;;;;;;;;;5010742;28;20207;-84
2023/03/05 11:43:55;;;;;;;7.53;4.90;;;;;;;;;;5014755;28;20706;-84
2023/03/05 11:46:22;;;;;;;6.90;4.70;;;;;;;;;;5030702;28;20234;-84
2023/03/05 11:48:50;;;;;;;6.17;4.40;;;;;;;;;;5030339;28;20365;-84
2023/03/05 11:51:20;;;;;;;8.53;5.40;;;;;;;;;;5011494;28;20242;-84
2023/03/05 11:53:50;;;;;;;8.57;4.77;;;;;;;;;;5013263;28;20304;-85
2023/03/05 11:56:21;;;;;;;6.93;4.60;;;;;;;;;;5028107;28;20655;-84
2023/03/05 11:58:50;;;;;;;7.97;5.57;;;;;;;;;;5027468;28;20579;-84
2023/03/05 12:01:19;;;;;;;7.00;4.90;;;;;;;;;;5040060;28;20212;-84
2023/03/05 12:03:47;;;;;;;5.83;5.20;;;;;;;;;;5013885;28;20239;-84
2023/03/05 12:06:17;;;;;;;5.83;4.63;;;;;;;;;;5010662;28;20211;-84
2023/03/05 12:08:45;;;;;;;7.40;5.00;;;;;;;;;;5009495;28;20263;-84
2023/03/05 12:11:16;;;;;;;5.77;4.10;;;;;;;;;;5010720;28;20210;-85
2023/03/05 12:13:47;;;;;;;6.40;5.00;;;;;;;;;;5046520;28;20615;-84
2023/03/05 12:16:18;;;;;;;7.03;4.30;;;;;;;;;;5031241;28;20217;-85
2023/03/05 12:18:51;;;;;;;6.00;4.30;;;;;;;;;;5030551;28;20239;-84
2023/03/05 12:21:25;;;;;;;5.53;3.93;;;;;;;;;;5030211;28;20206;-85
2023/03/05 12:23:57;;;;;;;7.10;3.97;;;;;;;;;;5027681;28;20265;-83
2023/03/05 12:26:40;;;;;;;6.67;4.33;;;;;;;;;;5010981;28;20207;-84
2023/03/05 12:29:26;;;;;;;5.00;3.90;;;;;;;;;;5009913;28;20239;-84
2023/03/05 12:31:53;;;;;;;5.63;3.83;;;;;;;;;;5012185;28;20215;-84
2023/03/05 12:34:37;;;;;;;8.27;4.10;;;;;;;;;;5024227;28;20318;-84
2023/03/05 12:37:05;;;;;;;6.27;4.27;;;;;;;;;;5010662;28;20239;-84
2023/03/05 12:39:51;;;;;;;6.10;4.23;;;;;;;;;;5010403;28;20238;-85
2023/03/05 12:42:42;;;;;;;8.07;4.40;;;;;;;;;;5013521;28;20226;-85
2023/03/05 12:45:29;;;;;;;6.50;3.97;;;;;;;;;;5015448;28;20220;-84
2023/03/05 12:48:15;;;;;;;7.60;4.03;;;;;;;;;;5029812;28;20246;-85
2023/03/05 12:50:51;;;;;;;4.47;3.77;;;;;;;;;;5028442;28;20203;-85
2023/03/05 12:53:19;;;;;;;6.03;4.17;;;;;;;;;;5031694;28;20237;-84
2023/03/05 12:55:51;;;;;;;5.30;3.80;;;;;;;;;;5050686;28;20221;-85
2023/03/05 12:58:20;;;;;;;6.00;4.20;;;;;;;;;;5050134;28;20321;-85
2023/03/05 13:00:50;;;;;;;5.10;3.77;;;;;;;;;;5033954;28;20206;-84
2023/03/05 13:03:18;;;;;;;6.23;4.23;;;;;;;;;;5029731;28;20250;-84
2023/03/05 13:05:48;;;;;;;6.53;4.23;;;;;;;;;;5030317;28;20195;-85
2023/03/05 13:08:20;;;;;;;5.80;3.93;;;;;;;;;;5029722;28;20231;-84
2023/03/05 13:10:52;;;;;;;5.23;3.63;;;;;;;;;;5030355;28;20203;-84
2023/03/05 13:13:19;;;;;;;7.83;3.60;;;;;;;;;;5033286;28;20242;-85
2023/03/05 13:15:47;;;;;;;4.47;3.73;;;;;;;;;;5052157;28;20202;-85
2023/03/05 13:18:19;;;;;;;5.43;3.83;;;;;;;;;;5040583;28;20576;-84
2023/03/05 13:20:49;;;;;;;4.87;4.13;;;;;;;;;;5042743;28;20199;-84
2023/03/05 13:23:21;;;;;;;4.00;3.07;;;;;;;;;;5053078;28;20321;-84
2023/03/05 13:25:59;;;;;;;3.57;3.27;;;;;;;;;;5044052;28;20217;-84
2023/03/05 13:28:26;;;;;;;6.33;3.60;;;;;;;;;;5038430;28;20242;-85
2023/03/05 13:30:55;;;;;;;5.10;3.20;;;;;;;;;;5032010;28;20203;-83
2023/03/05 13:33:26;;;;;;;5.63;3.63;;;;;;;;;;5013978;28;20239;-87
2023/03/05 13:35:54;;;;;;;4.77;3.50;;;;;;;;;;5021121;28;20205;-84
2023/03/05 13:38:25;;;;;;;3.30;3.03;;;;;;;;;;5033009;28;20234;-84
2023/03/05 13:41:03;;;;;;;7.03;3.10;;;;;;;;;;5036026;28;20206;-85
2023/03/05 13:43:30;;;;;;;5.37;4.00;;;;;;;;;;5028983;28;20250;-84
2023/03/05 13:45:58;;;;;;;3.73;3.00;;;;;;;;;;5013742;28;20203;-84
2023/03/05 13:48:27;;;;;;;5.33;4.23;;;;;;;;;;5021825;28;20235;-84
2023/03/05 13:50:56;;;;;;;4.63;3.37;;;;;;;;;;5044158;28;20260;-85
2023/03/05 13:53:23;;;;;;;4.47;3.30;;;;;;;;;;5040647;28;20274;-84
2023/03/05 13:55:52;;;;;;;4.07;3.63;;;;;;;;;;5033451;28;20271;-85
2023/03/05 13:58:38;;;;;;;4.17;3.43;;;;;;;;;;5032900;28;20262;-84
2023/03/05 14:01:06;;;;;;;6.07;2.90;;;;;;;;;;5044291;28;20201;-84
2023/03/05 14:03:34;;;;;;;4.00;2.90;;;;;;;;;;5052865;28;20245;-84
2023/03/05 14:06:02;;;;;;;4.23;3.47;;;;;;;;;;5036835;28;20213;-84
2023/03/05 14:08:29;;;;;;;5.60;3.80;;;;;;;;;;5032580;28;20245;-84
2023/03/05 14:10:57;;;;;;;4.40;3.27;;;;;;;;;;5042231;28;20217;-84
2023/03/05 14:13:26;;;;;;;5.10;2.90;;;;;;;;;;5052125;28;20242;-84
2023/03/05 14:16:06;;;;;;;4.33;3.00;;;;;;;;;;5052404;28;20738;-83
2023/03/05 14:18:34;;;;;;;4.07;2.87;;;;;;;;;;5052347;28;20759;-83
2023/03/05 14:21:03;;;;;;;2.97;2.77;;;;;;;;;;5051759;28;20205;-83
2023/03/05 14:23:38;;;;;;;5.13;2.83;;;;;;;;;;5048699;28;20238;-83
2023/03/05 14:26:18;;;;;;;3.77;2.90;;;;;;;;;;5031978;28;20206;-84
2023/03/05 14:28:50;;;;;;;3.00;2.60;;;;;;;;;;5032471;28;20245;-83
2023/03/05 14:31:18;;;;;;;3.10;2.53;;;;;;;;;;5040413;28;20338;-81
2023/03/05 14:33:46;;;;;;;3.50;2.60;;;;;;;;;;5028660;28;20242;-83
2023/03/05 14:36:14;;;;;;;3.77;2.60;;;;;;;;;;5027666;28;20208;-82
2023/03/05 14:38:42;;;;;;;4.07;2.97;;;;;;;;;;5026257;28;20605;-82
2023/03/05 14:41:19;;;;;;;2.97;2.70;;;;;;;;;;5020936;28;20200;-82
2023/03/05 14:43:47;;;;;;;3.37;3.00;;;;;;;;;;5023587;28;20234;-82
2023/03/05 14:46:14;;;;;;;3.67;3.17;;;;;;;;;;5026272;28;20214;-83